sensor_id;sensor_type;location;lat;lon;timestamp;pressure;altitude;pressure_sealevel;temperature;humidity
64115;BME280;62188;35.640;139.748;2023-02-11T00:00:50;101659.56;;;17.06;23.07
64115;BME280;62188;35.640;139.748;2023-02-11T00:03:15;101672.54;;;17.14;23.26
64115;BME280;62188;35.640;139.748;2023-02-11T00:05:41;101674.48;;;17.60;23.35
64115;BME280;62188;35.640;139.748;2023-02-11T00:08:07;101679.78;;;17.56;22.84
64115;BME280;62188;35.640;139.748;2023-02-11T00:10:32;101684.75;;;17.73;22.50
64115;BME280;62188;35.640;139.748;2023-02-11T00:12:58;101677.31;;;17.77;21.93
64115;BME280;62188;35.640;139.748;2023-02-11T00:15:24;101680.55;;;17.75;21.92
64115;BME280;62188;35.640;139.748;2023-02-11T00:17:49;101680.51;;;17.25;22.08
64115;BME280;62188;35.640;139.748;2023-02-11T00:20:14;101687.84;;;17.37;21.92
64115;BME280;62188;35.640;139.748;2023-02-11T00:22:40;101688.27;;;17.33;22.29
64115;BME280;62188;35.640;139.748;2023-02-11T00:25:06;101694.21;;;17.37;22.23
64115;BME280;62188;35.640;139.748;2023-02-11T00:27:32;101692.81;;;17.93;22.28
64115;BME280;62188;35.640;139.748;2023-02-11T00:29:57;101693.62;;;18.09;22.02
64115;BME280;62188;35.640;139.748;2023-02-11T00:32:22;101692.55;;;17.86;21.41
64115;BME280;62188;35.640;139.748;2023-02-11T00:34:52;101690.52;;;17.55;21.32
64115;BME280;62188;35.640;139.748;2023-02-11T00:37:14;101693.02;;;17.42;21.78
64115;BME280;62188;35.640;139.748;2023-02-11T00:39:39;101688.39;;;17.81;21.52
64115;BME280;62188;35.640;139.748;2023-02-11T00:42:05;101687.27;;;17.94;21.61
64115;BME280;62188;35.640;139.748;2023-02-11T00:44:30;101685.87;;;18.15;22.41
64115;BME280;62188;35.640;139.748;2023-02-11T00:46:56;101689.44;;;18.29;21.89
64115;BME280;62188;35.640;139.748;2023-02-11T00:49:22;101693.20;;;18.67;21.97
64115;BME280;62188;35.640;139.748;2023-02-11T00:51:47;101700.89;;;18.58;21.77
64115;BME280;62188;35.640;139.748;2023-02-11T00:54:13;101702.52;;;18.53;21.72
64115;BME280;62188;35.640;139.748;2023-02-11T00:56:39;101710.89;;;18.52;21.11
64115;BME280;62188;35.640;139.748;2023-02-11T00:59:04;101708.08;;;18.98;21.84
64115;BME280;62188;35.640;139.748;2023-02-11T01:01:30;101712.82;;;18.90;21.43
64115;BME280;62188;35.640;139.748;2023-02-11T01:03:55;101715.70;;;19.11;21.11
64115;BME280;62188;35.640;139.748;2023-02-11T01:06:21;101721.83;;;18.86;21.88
64115;BME280;62188;35.640;139.748;2023-02-11T01:08:46;101716.45;;;18.80;21.48
64115;BME280;62188;35.640;139.748;2023-02-11T01:11:15;101713.96;;;18.87;20.54
64115;BME280;62188;35.640;139.748;2023-02-11T01:13:38;101714.75;;;18.64;20.46
64115;BME280;62188;35.640;139.748;2023-02-11T01:16:05;101713.52;;;19.02;20.80
64115;BME280;62188;35.640;139.748;2023-02-11T01:18:28;101711.41;;;19.03;20.41
64115;BME280;62188;35.640;139.748;2023-02-11T01:20:54;101719.60;;;18.82;20.51
64115;BME280;62188;35.640;139.748;2023-02-11T01:23:20;101714.25;;;18.80;19.79
64115;BME280;62188;35.640;139.748;2023-02-11T01:25:46;101713.47;;;18.83;19.81
64115;BME280;62188;35.640;139.748;2023-02-11T01:28:17;101721.34;;;18.98;19.93
64115;BME280;62188;35.640;139.748;2023-02-11T01:30:36;101725.44;;;19.10;19.91
64115;BME280;62188;35.640;139.748;2023-02-11T01:33:01;101719.60;;;19.47;19.95
64115;BME280;62188;35.640;139.748;2023-02-11T01:35:27;101718.22;;;19.60;19.66
64115;BME280;62188;35.640;139.748;2023-02-11T01:37:53;101719.04;;;19.24;20.09
64115;BME280;62188;35.640;139.748;2023-02-11T01:40:18;101717.80;;;19.11;18.99
64115;BME280;62188;35.640;139.748;2023-02-11T01:42:44;101722.98;;;19.35;20.45
64115;BME280;62188;35.640;139.748;2023-02-11T01:47:35;101731.71;;;19.64;20.85
64115;BME280;62188;35.640;139.748;2023-02-11T01:50:01;101728.92;;;19.28;19.62
64115;BME280;62188;35.640;139.748;2023-02-11T01:52:30;101723.46;;;19.22;19.89
64115;BME280;62188;35.640;139.748;2023-02-11T01:54:54;101724.63;;;19.19;19.79
64115;BME280;62188;35.640;139.748;2023-02-11T01:57:20;101733.96;;;19.38;19.22
64115;BME280;62188;35.640;139.748;2023-02-11T01:59:47;101735.68;;;19.33;19.99
64115;BME280;62188;35.640;139.748;2023-02-11T02:02:11;101742.49;;;19.20;19.47
64115;BME280;62188;35.640;139.748;2023-02-11T02:04:40;101725.24;;;19.31;19.77
64115;BME280;62188;35.640;139.748;2023-02-11T02:07:04;101731.61;;;19.72;19.07
64115;BME280;62188;35.640;139.748;2023-02-11T02:09:27;101723.81;;;19.57;18.24
64115;BME280;62188;35.640;139.748;2023-02-11T02:11:51;101709.12;;;19.61;18.01
64115;BME280;62188;35.640;139.748;2023-02-11T02:14:16;101708.14;;;19.77;18.09
64115;BME280;62188;35.640;139.748;2023-02-11T02:16:42;101698.36;;;20.02;18.58
64115;BME280;62188;35.640;139.748;2023-02-11T02:33:46;101678.81;;;20.12;18.31
64115;BME280;62188;35.640;139.748;2023-02-11T02:36:14;101681.82;;;20.38;18.07
64115;BME280;62188;35.640;139.748;2023-02-11T02:38:34;101684.58;;;20.32;18.01
64115;BME280;62188;35.640;139.748;2023-02-11T02:41:00;101693.37;;;20.46;18.01
64115;BME280;62188;35.640;139.748;2023-02-11T02:43:24;101699.13;;;20.52;17.50
64115;BME280;62188;35.640;139.748;2023-02-11T02:45:48;101708.31;;;20.41;17.60
64115;BME280;62188;35.640;139.748;2023-02-11T02:48:24;101707.19;;;20.76;17.89
64115;BME280;62188;35.640;139.748;2023-02-11T02:50:39;101716.63;;;20.90;17.49
64115;BME280;62188;35.640;139.748;2023-02-11T02:53:15;101713.07;;;20.83;17.22
64115;BME280;62188;35.640;139.748;2023-02-11T02:55:43;101714.42;;;20.75;17.20
64115;BME280;62188;35.640;139.748;2023-02-11T02:58:07;101720.38;;;20.72;17.35
64115;BME280;62188;35.640;139.748;2023-02-11T03:00:27;101720.20;;;20.82;17.30
64115;BME280;62188;35.640;139.748;2023-02-11T03:02:57;101723.91;;;21.24;17.67
64115;BME280;62188;35.640;139.748;2023-02-11T03:05:17;101729.73;;;21.00;17.10
64115;BME280;62188;35.640;139.748;2023-02-11T03:07:40;101728.40;;;20.98;17.54
64115;BME280;62188;35.640;139.748;2023-02-11T03:10:07;101726.40;;;20.98;17.41
64115;BME280;62188;35.640;139.748;2023-02-11T03:12:30;101732.17;;;21.36;17.31
64115;BME280;62188;35.640;139.748;2023-02-11T03:14:54;101734.87;;;21.42;17.45
64115;BME280;62188;35.640;139.748;2023-02-11T03:17:21;101732.32;;;21.14;17.44
64115;BME280;62188;35.640;139.748;2023-02-11T03:19:47;101721.58;;;20.96;17.74
64115;BME280;62188;35.640;139.748;2023-02-11T03:22:15;101729.91;;;20.33;18.02
64115;BME280;62188;35.640;139.748;2023-02-11T03:24:38;101739.52;;;20.87;18.06
64115;BME280;62188;35.640;139.748;2023-02-11T03:27:06;101742.92;;;21.09;18.19
64115;BME280;62188;35.640;139.748;2023-02-11T03:29:32;101751.34;;;20.94;18.12
64115;BME280;62188;35.640;139.748;2023-02-11T03:31:57;101753.55;;;21.16;17.87
64115;BME280;62188;35.640;139.748;2023-02-11T03:34:24;101765.00;;;20.93;17.54
64115;BME280;62188;35.640;139.748;2023-02-11T03:36:48;101754.73;;;20.89;17.79
64115;BME280;62188;35.640;139.748;2023-02-11T03:39:10;101757.17;;;21.19;17.90
64115;BME280;62188;35.640;139.748;2023-02-11T03:41:35;101764.15;;;21.24;17.53
64115;BME280;62188;35.640;139.748;2023-02-11T03:44:01;101761.10;;;21.38;17.35
64115;BME280;62188;35.640;139.748;2023-02-11T03:46:31;101762.93;;;21.02;17.01
64115;BME280;62188;35.640;139.748;2023-02-11T03:48:53;101760.32;;;21.10;17.19
64115;BME280;62188;35.640;139.748;2023-02-11T03:51:17;101762.35;;;21.15;17.04
64115;BME280;62188;35.640;139.748;2023-02-11T03:53:44;101770.72;;;20.70;17.08
64115;BME280;62188;35.640;139.748;2023-02-11T03:56:11;101765.74;;;20.76;17.40
64115;BME280;62188;35.640;139.748;2023-02-11T03:58:33;101773.15;;;21.18;17.17
64115;BME280;62188;35.640;139.748;2023-02-11T04:00:59;101768.59;;;21.70;17.07
64115;BME280;62188;35.640;139.748;2023-02-11T04:03:24;101770.03;;;21.25;16.38
64115;BME280;62188;35.640;139.748;2023-02-11T04:05:49;101779.72;;;21.48;16.38
64115;BME280;62188;35.640;139.748;2023-02-11T04:08:15;101775.86;;;21.14;16.59
64115;BME280;62188;35.640;139.748;2023-02-11T04:10:40;101792.01;;;20.78;16.54
64115;BME280;62188;35.640;139.748;2023-02-11T04:13:06;101787.36;;;21.11;16.45
64115;BME280;62188;35.640;139.748;2023-02-11T04:15:32;101802.26;;;20.92;16.60
64115;BME280;62188;35.640;139.748;2023-02-11T04:17:57;101805.57;;;21.14;16.63
64115;BME280;62188;35.640;139.748;2023-02-11T04:20:23;101818.83;;;20.80;17.33
64115;BME280;62188;35.640;139.748;2023-02-11T04:22:48;101824.99;;;21.21;17.03
64115;BME280;62188;35.640;139.748;2023-02-11T04:25:14;101828.47;;;21.12;17.11
64115;BME280;62188;35.640;139.748;2023-02-11T04:27:39;101827.86;;;21.39;17.11
64115;BME280;62188;35.640;139.748;2023-02-11T04:30:06;101828.03;;;22.06;16.76
64115;BME280;62188;35.640;139.748;2023-02-11T04:32:30;101830.65;;;21.79;17.09
64115;BME280;62188;35.640;139.748;2023-02-11T04:34:55;101832.78;;;21.54;16.47
64115;BME280;62188;35.640;139.748;2023-02-11T04:37:21;101833.99;;;22.01;16.57
64115;BME280;62188;35.640;139.748;2023-02-11T04:39:46;101832.48;;;22.14;16.27
64115;BME280;62188;35.640;139.748;2023-02-11T04:42:12;101817.80;;;22.07;16.26
64115;BME280;62188;35.640;139.748;2023-02-11T04:44:37;101811.44;;;21.72;16.05
64115;BME280;62188;35.640;139.748;2023-02-11T04:47:03;101806.93;;;22.09;15.67
64115;BME280;62188;35.640;139.748;2023-02-11T04:49:28;101807.50;;;21.77;15.69
64115;BME280;62188;35.640;139.748;2023-02-11T04:51:54;101808.05;;;21.48;16.24
64115;BME280;62188;35.640;139.748;2023-02-11T04:54:19;101803.12;;;20.83;16.77
64115;BME280;62188;35.640;139.748;2023-02-11T04:56:44;101803.45;;;19.98;17.14
64115;BME280;62188;35.640;139.748;2023-02-11T04:59:10;101803.36;;;19.60;17.68
64115;BME280;62188;35.640;139.748;2023-02-11T05:01:36;101810.56;;;19.49;18.17
64115;BME280;62188;35.640;139.748;2023-02-11T05:04:01;101819.12;;;19.08;18.23
64115;BME280;62188;35.640;139.748;2023-02-11T05:06:27;101818.66;;;18.56;18.66
64115;BME280;62188;35.640;139.748;2023-02-11T05:08:52;101823.80;;;18.21;19.42
64115;BME280;62188;35.640;139.748;2023-02-11T05:11:20;101817.79;;;18.08;19.50
64115;BME280;62188;35.640;139.748;2023-02-11T05:13:44;101815.48;;;18.00;19.92
64115;BME280;62188;35.640;139.748;2023-02-11T05:16:09;101812.40;;;17.84;20.37
64115;BME280;62188;35.640;139.748;2023-02-11T05:18:37;101806.90;;;17.27;20.86
64115;BME280;62188;35.640;139.748;2023-02-11T05:21:06;101803.52;;;16.97;20.76
64115;BME280;62188;35.640;139.748;2023-02-11T05:23:26;101795.22;;;16.81;21.38
64115;BME280;62188;35.640;139.748;2023-02-11T05:25:51;101794.91;;;16.70;21.70
64115;BME280;62188;35.640;139.748;2023-02-11T05:28:17;101799.81;;;16.57;21.73
64115;BME280;62188;35.640;139.748;2023-02-11T05:30:42;101805.06;;;16.83;21.97
64115;BME280;62188;35.640;139.748;2023-02-11T05:33:08;101803.04;;;16.83;22.00
64115;BME280;62188;35.640;139.748;2023-02-11T05:35:33;101808.37;;;16.55;21.99
64115;BME280;62188;35.640;139.748;2023-02-11T05:37:59;101810.86;;;16.46;21.95
64115;BME280;62188;35.640;139.748;2023-02-11T05:40:25;101815.69;;;16.27;21.74
64115;BME280;62188;35.640;139.748;2023-02-11T05:42:50;101819.99;;;16.19;21.93
64115;BME280;62188;35.640;139.748;2023-02-11T05:45:16;101819.23;;;16.61;21.93
64115;BME280;62188;35.640;139.748;2023-02-11T05:47:41;101831.95;;;15.99;21.62
64115;BME280;62188;35.640;139.748;2023-02-11T05:50:07;101831.22;;;16.25;21.66
64115;BME280;62188;35.640;139.748;2023-02-11T05:52:33;101842.53;;;15.64;21.87
64115;BME280;62188;35.640;139.748;2023-02-11T05:54:58;101849.65;;;15.98;21.64
64115;BME280;62188;35.640;139.748;2023-02-11T05:57:24;101857.47;;;15.37;21.99
64115;BME280;62188;35.640;139.748;2023-02-11T05:59:49;101862.06;;;15.85;22.10
64115;BME280;62188;35.640;139.748;2023-02-11T06:02:15;101863.35;;;15.87;22.61
64115;BME280;62188;35.640;139.748;2023-02-11T06:04:41;101871.99;;;16.09;23.17
64115;BME280;62188;35.640;139.748;2023-02-11T06:07:07;101872.98;;;15.91;23.28
64115;BME280;62188;35.640;139.748;2023-02-11T06:09:32;101875.94;;;15.89;23.61
64115;BME280;62188;35.640;139.748;2023-02-11T06:11:58;101879.58;;;15.75;23.47
64115;BME280;62188;35.640;139.748;2023-02-11T06:14:23;101877.09;;;15.99;23.45
64115;BME280;62188;35.640;139.748;2023-02-11T06:16:49;101866.13;;;16.37;23.31
64115;BME280;62188;35.640;139.748;2023-02-11T06:19:15;101866.03;;;15.93;23.45
64115;BME280;62188;35.640;139.748;2023-02-11T06:21:40;101866.53;;;16.21;22.93
64115;BME280;62188;35.640;139.748;2023-02-11T06:24:06;101871.03;;;16.32;23.35
64115;BME280;62188;35.640;139.748;2023-02-11T06:26:33;101874.56;;;16.04;23.31
64115;BME280;62188;35.640;139.748;2023-02-11T06:28:59;101877.56;;;16.22;23.30
64115;BME280;62188;35.640;139.748;2023-02-11T06:31:22;101888.88;;;16.37;23.35
64115;BME280;62188;35.640;139.748;2023-02-11T06:33:48;101899.86;;;15.91;23.46
64115;BME280;62188;35.640;139.748;2023-02-11T06:36:16;101902.50;;;16.30;23.27
64115;BME280;62188;35.640;139.748;2023-02-11T06:38:39;101909.42;;;16.11;23.45
64115;BME280;62188;35.640;139.748;2023-02-11T06:41:07;101908.29;;;16.12;23.69
64115;BME280;62188;35.640;139.748;2023-02-11T06:43:30;101914.66;;;15.78;24.01
64115;BME280;62188;35.640;139.748;2023-02-11T06:45:56;101918.66;;;16.00;23.95
64115;BME280;62188;35.640;139.748;2023-02-11T06:48:22;101919.42;;;15.73;23.78
64115;BME280;62188;35.640;139.748;2023-02-11T06:50:47;101917.27;;;16.21;23.96
64115;BME280;62188;35.640;139.748;2023-02-11T06:53:13;101917.81;;;15.76;23.97
64115;BME280;62188;35.640;139.748;2023-02-11T06:55:38;101921.14;;;16.11;23.66
64115;BME280;62188;35.640;139.748;2023-02-11T06:58:04;101926.73;;;15.85;23.82
64115;BME280;62188;35.640;139.748;2023-02-11T07:00:30;101923.06;;;15.75;24.05
64115;BME280;62188;35.640;139.748;2023-02-11T07:02:55;101929.24;;;15.80;24.38
64115;BME280;62188;35.640;139.748;2023-02-11T07:05:21;101933.79;;;15.77;24.32
64115;BME280;62188;35.640;139.748;2023-02-11T07:07:47;101937.94;;;16.05;24.60
64115;BME280;62188;35.640;139.748;2023-02-11T07:10:12;101944.75;;;15.60;24.36
64115;BME280;62188;35.640;139.748;2023-02-11T07:12:38;101948.45;;;16.06;24.31
64115;BME280;62188;35.640;139.748;2023-02-11T07:15:04;101958.52;;;15.99;24.27
64115;BME280;62188;35.640;139.748;2023-02-11T07:17:29;101968.17;;;15.97;24.17
64115;BME280;62188;35.640;139.748;2023-02-11T07:19:54;101969.97;;;15.80;24.24
64115;BME280;62188;35.640;139.748;2023-02-11T07:22:20;101973.88;;;15.58;24.23
64115;BME280;62188;35.640;139.748;2023-02-11T07:24:46;101980.78;;;15.59;24.15
64115;BME280;62188;35.640;139.748;2023-02-11T07:27:11;101985.21;;;15.84;24.67
64115;BME280;62188;35.640;139.748;2023-02-11T07:29:38;101991.87;;;15.82;24.75
64115;BME280;62188;35.640;139.748;2023-02-11T07:32:03;101998.43;;;15.75;24.56
64115;BME280;62188;35.640;139.748;2023-02-11T07:34:28;101997.22;;;15.74;24.56
64115;BME280;62188;35.640;139.748;2023-02-11T07:36:53;101998.36;;;15.98;24.54
64115;BME280;62188;35.640;139.748;2023-02-11T07:39:20;102000.72;;;15.95;24.10
64115;BME280;62188;35.640;139.748;2023-02-11T07:41:45;102008.73;;;15.67;24.38
64115;BME280;62188;35.640;139.748;2023-02-11T07:44:11;102010.81;;;15.51;24.10
64115;BME280;62188;35.640;139.748;2023-02-11T07:46:36;102008.52;;;15.39;24.35
64115;BME280;62188;35.640;139.748;2023-02-11T07:49:01;102013.67;;;15.62;24.36
64115;BME280;62188;35.640;139.748;2023-02-11T07:51:29;102022.30;;;15.35;24.58
64115;BME280;62188;35.640;139.748;2023-02-11T07:53:54;102027.83;;;15.36;24.77
64115;BME280;62188;35.640;139.748;2023-02-11T07:56:20;102032.23;;;15.63;24.90
64115;BME280;62188;35.640;139.748;2023-02-11T07:58:44;102033.33;;;15.53;24.82
64115;BME280;62188;35.640;139.748;2023-02-11T08:01:11;102037.85;;;15.28;24.23
64115;BME280;62188;35.640;139.748;2023-02-11T08:03:36;102048.53;;;15.10;24.14
64115;BME280;62188;35.640;139.748;2023-02-11T08:06:04;102055.03;;;15.02;24.47
64115;BME280;62188;35.640;139.748;2023-02-11T08:08:26;102052.16;;;15.15;24.67
64115;BME280;62188;35.640;139.748;2023-02-11T08:10:52;102061.20;;;14.75;24.58
64115;BME280;62188;35.640;139.748;2023-02-11T08:13:18;102069.74;;;14.63;24.90
64115;BME280;62188;35.640;139.748;2023-02-11T08:15:43;102075.69;;;14.70;25.19
64115;BME280;62188;35.640;139.748;2023-02-11T08:18:09;102086.60;;;14.70;25.20
64115;BME280;62188;35.640;139.748;2023-02-11T08:20:35;102096.44;;;14.74;25.18
64115;BME280;62188;35.640;139.748;2023-02-11T08:23:00;102111.66;;;15.02;25.28
64115;BME280;62188;35.640;139.748;2023-02-11T08:25:26;102117.17;;;14.64;24.87
64115;BME280;62188;35.640;139.748;2023-02-11T08:27:51;102117.89;;;14.49;25.16
64115;BME280;62188;35.640;139.748;2023-02-11T08:30:17;102115.87;;;14.74;25.19
64115;BME280;62188;35.640;139.748;2023-02-11T08:32:43;102117.60;;;14.35;25.30
64115;BME280;62188;35.640;139.748;2023-02-11T08:35:09;102115.50;;;14.46;25.67
64115;BME280;62188;35.640;139.748;2023-02-11T08:37:34;102118.21;;;14.30;25.67
64115;BME280;62188;35.640;139.748;2023-02-11T08:39:59;102124.93;;;14.19;26.11
64115;BME280;62188;35.640;139.748;2023-02-11T08:42:25;102123.80;;;14.19;26.09
64115;BME280;62188;35.640;139.748;2023-02-11T08:44:51;102122.41;;;13.77;26.36
64115;BME280;62188;35.640;139.748;2023-02-11T08:47:16;102121.22;;;14.05;26.51
64115;BME280;62188;35.640;139.748;2023-02-11T08:49:42;102120.20;;;14.24;26.49
64115;BME280;62188;35.640;139.748;2023-02-11T08:52:08;102123.47;;;13.93;26.68
64115;BME280;62188;35.640;139.748;2023-02-11T08:54:33;102127.36;;;13.78;27.01
64115;BME280;62188;35.640;139.748;2023-02-11T08:56:59;102138.27;;;13.68;27.36
64115;BME280;62188;35.640;139.748;2023-02-11T08:59:25;102149.52;;;13.69;27.13
64115;BME280;62188;35.640;139.748;2023-02-11T09:01:51;102152.45;;;13.75;27.11
64115;BME280;62188;35.640;139.748;2023-02-11T09:04:16;102144.51;;;13.80;26.91
64115;BME280;62188;35.640;139.748;2023-02-11T09:06:42;102146.56;;;13.94;27.06
64115;BME280;62188;35.640;139.748;2023-02-11T09:09:11;102149.25;;;13.97;26.66
64115;BME280;62188;35.640;139.748;2023-02-11T09:11:34;102161.21;;;13.93;26.66
64115;BME280;62188;35.640;139.748;2023-02-11T09:13:59;102170.54;;;14.07;26.71
64115;BME280;62188;35.640;139.748;2023-02-11T09:16:26;102175.10;;;14.15;26.74
64115;BME280;62188;35.640;139.748;2023-02-11T09:18:50;102174.89;;;14.14;26.42
64115;BME280;62188;35.640;139.748;2023-02-11T09:21:16;102170.78;;;14.14;26.44
64115;BME280;62188;35.640;139.748;2023-02-11T09:23:41;102178.23;;;13.77;26.61
64115;BME280;62188;35.640;139.748;2023-02-11T09:26:08;102192.55;;;13.93;26.91
64115;BME280;62188;35.640;139.748;2023-02-11T09:28:33;102201.80;;;13.84;26.80
64115;BME280;62188;35.640;139.748;2023-02-11T09:30:58;102196.07;;;13.91;27.22
64115;BME280;62188;35.640;139.748;2023-02-11T09:33:23;102190.99;;;13.99;27.00
64115;BME280;62188;35.640;139.748;2023-02-11T09:35:49;102193.38;;;14.07;26.88
64115;BME280;62188;35.640;139.748;2023-02-11T09:38:15;102195.81;;;14.15;27.11
64115;BME280;62188;35.640;139.748;2023-02-11T09:40:43;102201.16;;;14.14;27.26
64115;BME280;62188;35.640;139.748;2023-02-11T09:43:09;102207.49;;;14.16;27.39
64115;BME280;62188;35.640;139.748;2023-02-11T09:45:32;102212.81;;;14.22;27.49
64115;BME280;62188;35.640;139.748;2023-02-11T09:48:01;102216.33;;;14.25;27.29
64115;BME280;62188;35.640;139.748;2023-02-11T09:50:27;102219.03;;;14.23;27.40
64115;BME280;62188;35.640;139.748;2023-02-11T09:52:54;102224.84;;;14.24;27.26
64115;BME280;62188;35.640;139.748;2023-02-11T09:55:19;102223.97;;;14.26;27.13
64115;BME280;62188;35.640;139.748;2023-02-11T09:57:40;102229.83;;;14.26;27.29
64115;BME280;62188;35.640;139.748;2023-02-11T10:00:18;102231.81;;;14.30;27.48
64115;BME280;62188;35.640;139.748;2023-02-11T10:02:40;102234.14;;;14.31;27.25
64115;BME280;62188;35.640;139.748;2023-02-11T10:05:10;102234.89;;;14.33;27.78
64115;BME280;62188;35.640;139.748;2023-02-11T10:07:27;102240.51;;;14.38;27.82
64115;BME280;62188;35.640;139.748;2023-02-11T10:09:58;102247.55;;;14.36;27.55
64115;BME280;62188;35.640;139.748;2023-02-11T10:12:27;102247.59;;;14.29;27.71
64115;BME280;62188;35.640;139.748;2023-02-11T10:14:48;102257.49;;;14.13;28.15
64115;BME280;62188;35.640;139.748;2023-02-11T10:17:13;102255.25;;;13.95;28.47
64115;BME280;62188;35.640;139.748;2023-02-11T10:19:39;102257.50;;;13.93;28.95
64115;BME280;62188;35.640;139.748;2023-02-11T10:22:03;102257.33;;;13.77;28.69
64115;BME280;62188;35.640;139.748;2023-02-11T10:24:22;102258.97;;;13.43;28.94
64115;BME280;62188;35.640;139.748;2023-02-11T10:26:48;102250.83;;;13.31;29.10
64115;BME280;62188;35.640;139.748;2023-02-11T10:29:24;102252.69;;;13.34;30.13
64115;BME280;62188;35.640;139.748;2023-02-11T10:31:42;102261.48;;;13.38;30.14
64115;BME280;62188;35.640;139.748;2023-02-11T10:34:07;102271.30;;;13.13;30.52
64115;BME280;62188;35.640;139.748;2023-02-11T10:36:33;102271.96;;;13.11;30.16
64115;BME280;62188;35.640;139.748;2023-02-11T10:38:56;102274.18;;;13.32;30.38
64115;BME280;62188;35.640;139.748;2023-02-11T10:41:27;102273.36;;;13.07;32.02
64115;BME280;62188;35.640;139.748;2023-02-11T10:43:47;102275.61;;;13.31;30.68
64115;BME280;62188;35.640;139.748;2023-02-11T10:46:17;102281.88;;;13.14;30.70
64115;BME280;62188;35.640;139.748;2023-02-11T10:48:42;102280.29;;;13.21;30.40
64115;BME280;62188;35.640;139.748;2023-02-11T10:51:14;102282.46;;;13.09;31.16
64115;BME280;62188;35.640;139.748;2023-02-11T10:53:29;102290.76;;;13.06;30.67
64115;BME280;62188;35.640;139.748;2023-02-11T10:55:56;102292.59;;;13.24;30.51
64115;BME280;62188;35.640;139.748;2023-02-11T10:58:25;102300.71;;;12.85;30.84
64115;BME280;62188;35.640;139.748;2023-02-11T11:00:52;102310.70;;;12.96;31.07
64115;BME280;62188;35.640;139.748;2023-02-11T11:03:19;102316.24;;;13.11;31.90
64115;BME280;62188;35.640;139.748;2023-02-11T11:05:45;102319.88;;;13.23;32.25
64115;BME280;62188;35.640;139.748;2023-02-11T11:08:05;102318.41;;;13.29;32.02
64115;BME280;62188;35.640;139.748;2023-02-11T11:10:36;102322.01;;;13.39;31.77
64115;BME280;62188;35.640;139.748;2023-02-11T11:12:53;102324.83;;;13.39;32.26
64115;BME280;62188;35.640;139.748;2023-02-11T11:15:22;102325.75;;;13.28;31.36
64115;BME280;62188;35.640;139.748;2023-02-11T11:17:44;102325.17;;;13.33;31.43
64115;BME280;62188;35.640;139.748;2023-02-11T11:20:20;102327.29;;;13.44;31.07
64115;BME280;62188;35.640;139.748;2023-02-11T11:22:35;102337.72;;;13.43;30.72
64115;BME280;62188;35.640;139.748;2023-02-11T11:25:01;102338.73;;;13.19;30.67
64115;BME280;62188;35.640;139.748;2023-02-11T11:27:26;102335.55;;;13.24;30.18
64115;BME280;62188;35.640;139.748;2023-02-11T11:29:54;102333.04;;;13.49;29.78
64115;BME280;62188;35.640;139.748;2023-02-11T11:32:21;102338.11;;;13.38;31.05
64115;BME280;62188;35.640;139.748;2023-02-11T11:34:49;102341.70;;;13.26;30.01
64115;BME280;62188;35.640;139.748;2023-02-11T11:37:18;102345.01;;;13.52;29.82
64115;BME280;62188;35.640;139.748;2023-02-11T11:39:35;102347.39;;;13.83;29.56
64115;BME280;62188;35.640;139.748;2023-02-11T11:42:01;102342.09;;;13.75;29.33
64115;BME280;62188;35.640;139.748;2023-02-11T11:44:29;102337.88;;;13.60;29.96
64115;BME280;62188;35.640;139.748;2023-02-11T11:49:24;102326.53;;;13.53;30.95
64115;BME280;62188;35.640;139.748;2023-02-11T11:51:50;102319.82;;;13.79;31.34
64115;BME280;62188;35.640;139.748;2023-02-11T11:54:11;102317.95;;;13.17;31.45
64115;BME280;62188;35.640;139.748;2023-02-11T11:56:36;102316.11;;;13.28;31.83
64115;BME280;62188;35.640;139.748;2023-02-11T11:59:01;102310.69;;;13.65;33.12
64115;BME280;62188;35.640;139.748;2023-02-11T12:01:33;102312.38;;;13.81;33.16
64115;BME280;62188;35.640;139.748;2023-02-11T12:06:25;102305.31;;;13.57;32.07
64115;BME280;62188;35.640;139.748;2023-02-11T12:08:51;102308.14;;;13.58;30.27
64115;BME280;62188;35.640;139.748;2023-02-11T12:11:14;102311.32;;;13.88;30.08
64115;BME280;62188;35.640;139.748;2023-02-11T12:13:41;102310.50;;;13.68;30.00
64115;BME280;62188;35.640;139.748;2023-02-11T12:16:05;102318.64;;;13.68;29.96
64115;BME280;62188;35.640;139.748;2023-02-11T12:18:35;102323.42;;;13.58;30.16
64115;BME280;62188;35.640;139.748;2023-02-11T12:21:04;102328.52;;;13.66;29.93
64115;BME280;62188;35.640;139.748;2023-02-11T12:23:25;102332.64;;;13.70;29.91
64115;BME280;62188;35.640;139.748;2023-02-11T12:25:47;102333.75;;;13.94;30.28
64115;BME280;62188;35.640;139.748;2023-02-11T12:28:18;102333.14;;;13.87;30.20
64115;BME280;62188;35.640;139.748;2023-02-11T12:30:46;102340.18;;;13.68;29.93
64115;BME280;62188;35.640;139.748;2023-02-11T12:33:06;102343.99;;;13.78;29.85
64115;BME280;62188;35.640;139.748;2023-02-11T12:35:31;102345.54;;;13.78;29.98
64115;BME280;62188;35.640;139.748;2023-02-11T12:40:19;102350.98;;;13.87;30.03
64115;BME280;62188;35.640;139.748;2023-02-11T12:45:18;102348.86;;;13.82;30.09
64115;BME280;62188;35.640;139.748;2023-02-11T12:47:38;102351.85;;;13.76;29.75